Time;durP1;ratioP1;P1;durP2;ratioP2;P2;SDS_P1;SDS_P2;PMS_P1;PMS_P2;Temp;Humidity;BMP_temperature;BMP_pressure;BME280_temperature;BME280_humidity;BME280_pressure;Samples;Min_cycle;Max_cycle;Signal;HPM_P1;HPM_P2
2023/07/17 00:01:35;;;;;;;14.23;3.25;;;16.90;99.90;;;;;;5114312;27;20055;-84
2023/07/17 00:04:21;;;;;;;12.63;2.88;;;16.90;99.90;;;;;;5134460;27;20051;-82
2023/07/17 00:07:07;;;;;;;14.68;2.70;;;16.90;99.90;;;;;;5134230;27;20440;-82
2023/07/17 00:09:53;;;;;;;15.48;3.95;;;16.90;99.90;;;;;;5116013;27;20051;-81
2023/07/17 00:12:39;;;;;;;13.13;3.65;;;16.90;99.90;;;;;;5114791;27;20062;-82
2023/07/17 00:15:25;;;;;;;20.70;3.15;;;16.90;99.90;;;;;;5119072;27;20499;-83
2023/07/17 00:18:13;;;;;;;13.77;3.85;;;16.90;99.90;;;;;;5117721;27;20047;-83
2023/07/17 00:20:59;;;;;;;12.95;3.28;;;16.80;99.90;;;;;;5133929;27;20396;-85
2023/07/17 00:23:45;;;;;;;10.50;2.50;;;16.90;99.90;;;;;;5134172;27;20057;-82
2023/07/17 00:26:31;;;;;;;13.55;2.58;;;16.90;99.90;;;;;;5115736;27;20058;-82
2023/07/17 00:29:28;;;;;;;16.35;4.47;;;16.90;99.90;;;;;;5132565;27;20043;-83
2023/07/17 00:32:14;;;;;;;12.77;2.45;;;16.90;99.90;;;;;;5134034;27;20047;-85
2023/07/17 00:35:00;;;;;;;14.85;3.40;;;16.90;99.90;;;;;;5114214;27;20110;-82
2023/07/17 00:37:46;;;;;;;13.43;3.03;;;16.80;99.90;;;;;;5133196;27;20090;-82
2023/07/17 00:40:34;;;;;;;14.43;2.85;;;16.90;99.90;;;;;;5132264;27;20483;-83
2023/07/17 00:43:20;;;;;;;12.18;2.67;;;16.90;99.90;;;;;;5115216;27;20043;-82
2023/07/17 00:46:06;;;;;;;12.68;3.22;;;16.80;99.90;;;;;;5115818;27;20057;-82
2023/07/17 00:48:52;;;;;;;11.20;3.10;;;16.80;99.90;;;;;;5114523;27;20055;-81
2023/07/17 00:51:41;;;;;;;12.20;2.72;;;16.90;99.90;;;;;;5133625;27;20047;-81
2023/07/17 00:54:28;;;;;;;15.07;2.92;;;16.90;99.90;;;;;;5114803;27;20133;-82
2023/07/17 00:57:17;;;;;;;14.50;2.83;;;16.90;99.90;;;;;;5132873;27;20380;-83
2023/07/17 01:00:08;;;;;;;15.32;3.10;;;16.80;99.90;;;;;;5132393;27;20051;-83
2023/07/17 01:02:57;;;;;;;11.25;2.80;;;16.80;99.90;;;;;;5115270;27;20491;-84
2023/07/17 01:05:43;;;;;;;12.38;2.90;;;16.80;99.90;;;;;;5135575;27;20113;-84
2023/07/17 01:08:31;;;;;;;13.05;2.75;;;16.80;99.90;;;;;;5117307;27;20406;-85
2023/07/17 01:11:17;;;;;;;14.43;2.47;;;16.80;99.90;;;;;;5132399;27;20491;-84
2023/07/17 01:14:03;;;;;;;12.48;2.42;;;16.80;99.90;;;;;;5113820;27;20419;-84
2023/07/17 01:16:49;;;;;;;11.38;2.90;;;16.70;99.90;;;;;;5132083;27;20090;-83
2023/07/17 01:19:35;;;;;;;10.00;2.33;;;16.70;99.90;;;;;;5132545;27;20051;-83
2023/07/17 01:22:31;;;;;;;16.88;2.75;;;16.70;99.90;;;;;;5114005;27;20488;-83
2023/07/17 01:25:17;;;;;;;15.38;3.47;;;16.70;99.90;;;;;;5132122;27;20101;-82
2023/07/17 01:28:03;;;;;;;9.80;2.78;;;16.70;99.90;;;;;;5131399;27;20039;-84
2023/07/17 01:30:49;;;;;;;16.17;3.38;;;16.60;99.90;;;;;;5135827;27;20169;-82
2023/07/17 01:33:36;;;;;;;10.63;2.90;;;16.60;99.90;;;;;;5132301;27;20047;-82
2023/07/17 01:36:22;;;;;;;8.80;2.92;;;16.60;99.90;;;;;;5117521;27;20078;-83
2023/07/17 01:39:08;;;;;;;13.38;2.42;;;16.50;99.90;;;;;;5132808;27;20047;-85
2023/07/17 01:41:54;;;;;;;13.40;3.08;;;16.50;99.90;;;;;;5131898;27;20086;-83
2023/07/17 01:44:40;;;;;;;12.50;2.92;;;16.50;99.90;;;;;;5113446;27;20058;-84
2023/07/17 01:47:26;;;;;;;10.52;2.53;;;16.40;99.90;;;;;;5113784;27;20047;-84
2023/07/17 01:50:13;;;;;;;15.10;2.83;;;16.30;99.90;;;;;;5133729;27;20112;-83
2023/07/17 01:52:59;;;;;;;16.30;3.28;;;16.30;99.90;;;;;;5137409;27;20127;-84
2023/07/17 01:55:45;;;;;;;17.92;3.20;;;16.30;99.90;;;;;;5132972;27;20090;-83
2023/07/17 01:58:31;;;;;;;11.55;3.03;;;16.30;99.90;;;;;;5153195;27;20050;-84
2023/07/17 02:01:17;;;;;;;11.13;2.60;;;16.30;99.90;;;;;;5136393;27;20049;-86
2023/07/17 02:04:03;;;;;;;16.52;2.85;;;16.20;99.90;;;;;;5097899;27;20518;-84
2023/07/17 02:06:49;;;;;;;19.02;3.78;;;16.20;99.90;;;;;;5112588;27;20054;-84
2023/07/17 02:09:35;;;;;;;14.23;3.20;;;16.20;99.90;;;;;;5132425;27;20050;-84
2023/07/17 02:12:21;;;;;;;17.83;3.67;;;16.10;99.90;;;;;;5131667;27;20047;-82
2023/07/17 02:15:07;;;;;;;13.45;3.40;;;16.10;99.90;;;;;;5131204;27;20043;-83
2023/07/17 02:17:53;;;;;;;11.77;3.72;;;16.10;99.90;;;;;;5114212;27;20051;-84
2023/07/17 02:20:39;;;;;;;13.13;2.88;;;16.10;99.90;;;;;;5132371;27;20107;-83
2023/07/17 02:23:26;;;;;;;16.58;3.10;;;16.10;99.90;;;;;;5113151;27;20054;-82
2023/07/17 02:26:12;;;;;;;15.18;3.20;;;16.10;99.90;;;;;;5130388;27;20043;-85
2023/07/17 02:28:58;;;;;;;14.50;3.15;;;16.10;99.90;;;;;;5116176;27;20407;-83
2023/07/17 02:31:44;;;;;;;17.15;5.05;;;16.10;99.90;;;;;;5131282;27;20072;-85
2023/07/17 02:34:30;;;;;;;9.95;2.88;;;16.10;99.90;;;;;;5130513;27;20055;-85
2023/07/17 02:37:16;;;;;;;11.30;2.75;;;16.10;99.90;;;;;;5131623;27;20082;-83
2023/07/17 02:40:12;;;;;;;13.63;3.63;;;16.10;99.90;;;;;;5131044;27;20049;-82
2023/07/17 02:42:58;;;;;;;14.77;3.13;;;16.20;99.90;;;;;;5130121;27;20047;-84
2023/07/17 02:45:44;;;;;;;9.07;2.35;;;16.20;99.90;;;;;;5148921;27;20046;-85
2023/07/17 02:48:30;;;;;;;11.70;3.75;;;16.20;99.90;;;;;;5114328;27;20043;-83
2023/07/17 02:51:16;;;;;;;12.55;2.90;;;16.20;99.90;;;;;;5151610;27;20049;-85
2023/07/17 02:54:02;;;;;;;16.95;3.58;;;16.20;99.90;;;;;;5110307;27;20138;-84
2023/07/17 02:56:48;;;;;;;14.25;3.22;;;16.20;99.90;;;;;;5130335;28;20640;-84
2023/07/17 02:59:34;;;;;;;16.70;3.30;;;16.20;99.90;;;;;;5130001;27;20103;-84
2023/07/17 03:02:21;;;;;;;11.57;3.72;;;16.20;99.90;;;;;;5129741;27;20126;-84
2023/07/17 03:05:10;;;;;;;15.60;3.58;;;16.20;99.90;;;;;;5114331;28;20100;-83
2023/07/17 03:07:56;;;;;;;15.45;3.72;;;16.20;99.90;;;;;;5111665;28;20047;-83
2023/07/17 03:10:42;;;;;;;16.13;3.05;;;16.20;99.90;;;;;;5116253;28;20061;-83
2023/07/17 03:13:29;;;;;;;13.52;3.20;;;16.20;99.90;;;;;;5134206;28;20414;-82
2023/07/17 03:16:15;;;;;;;17.80;4.20;;;16.10;99.90;;;;;;5128940;28;20058;-84
2023/07/17 03:19:01;;;;;;;14.43;3.92;;;16.10;99.90;;;;;;5131092;28;20486;-82
2023/07/17 03:21:47;;;;;;;15.88;3.83;;;16.10;99.90;;;;;;5130083;28;20089;-82
2023/07/17 03:24:33;;;;;;;14.98;3.20;;;16.00;99.90;;;;;;5130807;28;20116;-85
2023/07/17 03:27:19;;;;;;;14.00;3.45;;;16.00;99.90;;;;;;5083190;28;20055;-83
2023/07/17 03:30:06;;;;;;;18.15;4.57;;;16.00;99.90;;;;;;5114311;28;20495;-83
2023/07/17 03:32:52;;;;;;;13.05;3.47;;;15.90;99.90;;;;;;5098024;28;20047;-86
2023/07/17 03:35:38;;;;;;;10.40;3.05;;;15.90;99.90;;;;;;5099559;28;20591;-83
2023/07/17 03:38:24;;;;;;;16.08;4.60;;;15.90;99.90;;;;;;5098133;28;20047;-82
2023/07/17 03:41:10;;;;;;;14.57;4.20;;;15.80;99.90;;;;;;5144974;27;20450;-83
2023/07/17 03:43:58;;;;;;;21.50;5.20;;;15.80;99.90;;;;;;5131833;27;20050;-84
2023/07/17 03:46:44;;;;;;;21.52;4.93;;;15.80;99.90;;;;;;5150257;27;20046;-83
2023/07/17 03:49:30;;;;;;;19.48;4.35;;;15.80;99.90;;;;;;5149833;27;20045;-82
2023/07/17 03:52:16;;;;;;;21.30;4.15;;;15.80;99.90;;;;;;5131345;27;20054;-83
2023/07/17 03:55:02;;;;;;;21.40;4.75;;;15.80;99.90;;;;;;5131518;27;20069;-85
2023/07/17 03:57:48;;;;;;;13.45;4.50;;;15.80;99.90;;;;;;5155910;27;20183;-83
2023/07/17 04:00:34;;;;;;;23.60;4.78;;;15.80;99.90;;;;;;5132334;27;20089;-84
2023/07/17 04:03:20;;;;;;;14.55;4.53;;;15.80;99.90;;;;;;5150414;27;20086;-83
2023/07/17 04:06:08;;;;;;;22.45;4.78;;;15.90;99.90;;;;;;5131180;27;20057;-83
2023/07/17 04:08:54;;;;;;;14.40;4.00;;;15.90;99.90;;;;;;5133154;27;20074;-84
2023/07/17 04:11:40;;;;;;;17.13;4.65;;;16.00;99.90;;;;;;5131152;27;20047;-84
2023/07/17 04:14:26;;;;;;;14.48;4.43;;;16.00;99.90;;;;;;5150509;27;20046;-84
2023/07/17 04:17:12;;;;;;;15.73;4.40;;;16.00;99.90;;;;;;5150180;27;20043;-84
2023/07/17 04:19:59;;;;;;;21.75;5.35;;;16.10;99.90;;;;;;5111773;27;20503;-84
2023/07/17 04:22:45;;;;;;;21.17;4.70;;;16.10;99.90;;;;;;5121529;27;20508;-82
2023/07/17 04:25:31;;;;;;;13.43;3.88;;;16.20;99.90;;;;;;5133226;27;20449;-83
2023/07/17 04:28:18;;;;;;;16.67;4.00;;;16.10;99.90;;;;;;5115284;27;20050;-83
2023/07/17 04:31:04;;;;;;;25.00;6.28;;;16.20;99.90;;;;;;5125212;27;20268;-82
2023/07/17 04:33:50;;;;;;;20.80;4.55;;;16.20;99.90;;;;;;5115109;27;20053;-83
2023/07/17 04:36:36;;;;;;;20.52;5.47;;;16.20;99.90;;;;;;5115598;27;20061;-84
2023/07/17 04:39:22;;;;;;;24.88;6.30;;;16.20;99.90;;;;;;5114521;27;20047;-83
2023/07/17 04:42:09;;;;;;;21.17;5.13;;;16.10;99.90;;;;;;5114343;27;20073;-82
2023/07/17 04:44:55;;;;;;;14.88;4.25;;;16.10;99.90;;;;;;5126035;27;20047;-82
2023/07/17 04:47:41;;;;;;;19.67;5.10;;;16.10;99.90;;;;;;5101000;27;20500;-81
2023/07/17 04:50:27;;;;;;;19.90;5.30;;;16.10;99.90;;;;;;5114864;27;20087;-83
2023/07/17 04:53:13;;;;;;;23.13;5.57;;;16.00;99.90;;;;;;5099999;27;20086;-83
2023/07/17 04:55:59;;;;;;;17.38;4.55;;;16.00;99.90;;;;;;5116282;27;20059;-83
2023/07/17 04:58:45;;;;;;;23.98;5.35;;;16.00;99.90;;;;;;5133199;27;20463;-80
2023/07/17 05:01:31;;;;;;;31.83;5.88;;;16.00;99.90;;;;;;5115824;27;20491;-80
2023/07/17 05:04:18;;;;;;;32.13;6.40;;;16.00;99.90;;;;;;5133086;27;20050;-83
2023/07/17 05:07:05;;;;;;;22.15;5.18;;;15.90;99.90;;;;;;5133259;27;20478;-80
2023/07/17 05:09:51;;;;;;;22.23;4.75;;;15.80;99.90;;;;;;5142577;27;20078;-80
2023/07/17 05:12:38;;;;;;;24.23;5.57;;;15.80;99.90;;;;;;5130901;27;20043;-81
2023/07/17 05:15:24;;;;;;;28.15;6.32;;;15.60;99.90;;;;;;5105890;27;20135;-84
2023/07/17 05:18:11;;;;;;;22.80;4.38;;;15.60;99.90;;;;;;5133419;27;20039;-81
2023/07/17 05:20:57;;;;;;;17.92;3.97;;;15.50;99.90;;;;;;5113680;27;20047;-82
2023/07/17 05:23:43;;;;;;;12.23;3.67;;;15.40;99.90;;;;;;5114405;27;20055;-83
2023/07/17 05:26:29;;;;;;;15.98;3.95;;;15.40;99.90;;;;;;5132649;27;20057;-81
2023/07/17 05:29:16;;;;;;;12.60;3.30;;;15.40;99.90;;;;;;5133335;27;20148;-83
2023/07/17 05:32:03;;;;;;;13.07;3.75;;;15.30;99.90;;;;;;5131967;27;20096;-81
2023/07/17 05:34:49;;;;;;;18.20;4.45;;;15.30;99.90;;;;;;5100197;27;20062;-81
2023/07/17 05:37:35;;;;;;;19.40;5.32;;;15.30;99.90;;;;;;5132569;27;20047;-82
2023/07/17 05:40:22;;;;;;;14.80;4.47;;;15.30;99.90;;;;;;5116789;27;20035;-84
2023/07/17 05:43:08;;;;;;;29.05;4.93;;;15.30;99.90;;;;;;5113894;27;20084;-83
2023/07/17 05:45:56;;;;;;;23.23;5.60;;;15.30;99.90;;;;;;5133219;27;20051;-81
2023/07/17 05:48:42;;;;;;;24.63;5.25;;;15.30;99.90;;;;;;5131104;27;20039;-81
2023/07/17 05:51:28;;;;;;;20.27;5.55;;;15.30;99.90;;;;;;5131694;27;20059;-81
2023/07/17 05:54:14;;;;;;;23.63;6.93;;;15.40;99.90;;;;;;5131011;27;20046;-82
2023/07/17 05:57:00;;;;;;;26.13;6.72;;;15.50;99.90;;;;;;5116227;27;20055;-83
2023/07/17 05:59:46;;;;;;;17.42;5.63;;;15.50;99.90;;;;;;5132750;27;20130;-81
2023/07/17 06:02:32;;;;;;;28.92;6.78;;;15.50;99.90;;;;;;5116486;27;20062;-82
2023/07/17 06:05:18;;;;;;;25.10;6.07;;;15.50;99.90;;;;;;5132558;27;20145;-80
2023/07/17 06:08:08;;;;;;;13.45;4.53;;;15.50;99.90;;;;;;5132455;27;20054;-81
2023/07/17 06:10:54;;;;;;;15.82;4.85;;;15.60;99.90;;;;;;5131836;27;20089;-82
2023/07/17 06:13:40;;;;;;;17.23;4.20;;;15.60;99.90;;;;;;5132215;27;20502;-80
2023/07/17 06:16:26;;;;;;;15.38;4.88;;;15.60;99.90;;;;;;5116562;27;20046;-79
2023/07/17 06:19:12;;;;;;;16.58;4.78;;;15.70;99.90;;;;;;5113139;27;20039;-80
2023/07/17 06:21:58;;;;;;;20.00;6.25;;;15.70;99.90;;;;;;5130978;27;20141;-82
2023/07/17 06:24:44;;;;;;;20.88;5.78;;;15.90;99.90;;;;;;5098986;27;20456;-81
2023/07/17 06:27:32;;;;;;;16.20;4.63;;;16.10;99.90;;;;;;5098574;27;20051;-80
2023/07/17 06:30:18;;;;;;;18.65;5.68;;;16.20;99.90;;;;;;5131912;27;20039;-82
2023/07/17 06:33:04;;;;;;;21.60;5.75;;;16.20;99.90;;;;;;5111440;27;20058;-81
2023/07/17 06:35:51;;;;;;;18.05;5.70;;;16.30;99.90;;;;;;5113040;27;20086;-79
2023/07/17 06:38:37;;;;;;;16.90;4.63;;;16.30;99.90;;;;;;5111656;27;20047;-79
2023/07/17 06:41:23;;;;;;;15.82;4.28;;;16.20;99.90;;;;;;5130412;27;20054;-79
2023/07/17 06:44:09;;;;;;;19.23;5.43;;;16.30;99.90;;;;;;5131484;27;20043;-80
2023/07/17 06:46:55;;;;;;;20.05;5.20;;;16.50;99.90;;;;;;5112158;27;20054;-79
2023/07/17 06:49:41;;;;;;;22.48;4.78;;;16.90;99.90;;;;;;5111955;27;20466;-81
2023/07/17 06:52:27;;;;;;;15.95;4.90;;;17.00;99.90;;;;;;5130730;27;20047;-81
2023/07/17 06:55:13;;;;;;;19.45;5.00;;;17.00;99.90;;;;;;5125677;27;20414;-81
2023/07/17 06:57:59;;;;;;;20.27;5.55;;;17.00;99.90;;;;;;5095871;28;20056;-81
2023/07/17 07:00:45;;;;;;;12.80;4.47;;;17.00;99.90;;;;;;5095859;28;20039;-81
2023/07/17 07:03:31;;;;;;;11.25;4.00;;;16.90;99.90;;;;;;5092742;28;20058;-81
2023/07/17 07:06:17;;;;;;;14.27;3.53;;;17.00;99.90;;;;;;5110128;28;20051;-82
2023/07/17 07:09:04;;;;;;;16.10;4.63;;;17.00;99.90;;;;;;5110371;28;20052;-82
2023/07/17 07:11:50;;;;;;;12.60;3.70;;;17.10;99.90;;;;;;5091970;28;20048;-82
2023/07/17 07:14:36;;;;;;;9.73;3.35;;;17.20;99.90;;;;;;5109981;28;20408;-82
2023/07/17 07:17:22;;;;;;;16.83;4.13;;;17.40;99.90;;;;;;5091090;28;20052;-83
2023/07/17 07:20:09;;;;;;;10.40;4.00;;;17.70;99.90;;;;;;5109876;28;20723;-82
2023/07/17 07:22:55;;;;;;;11.18;3.50;;;17.90;99.90;;;;;;5110497;28;20043;-83
2023/07/17 07:25:42;;;;;;;13.30;3.33;;;18.10;99.90;;;;;;5109984;28;20058;-83
2023/07/17 07:28:28;;;;;;;10.02;3.00;;;18.20;99.90;;;;;;5109276;28;20048;-83
2023/07/17 07:31:14;;;;;;;11.65;2.80;;;18.10;99.90;;;;;;5095540;28;20066;-82
2023/07/17 07:34:00;;;;;;;11.05;2.95;;;18.00;99.90;;;;;;5092305;28;20051;-83
2023/07/17 07:36:46;;;;;;;14.65;3.67;;;18.10;99.90;;;;;;5109883;28;20483;-82
2023/07/17 07:39:32;;;;;;;13.57;3.35;;;18.40;99.90;;;;;;5092624;28;20070;-80
2023/07/17 07:42:18;;;;;;;12.20;2.53;;;18.30;99.90;;;;;;5112524;28;20399;-81
2023/07/17 07:45:06;;;;;;;11.50;3.75;;;18.30;99.90;;;;;;5110873;28;20133;-83
2023/07/17 07:47:52;;;;;;;13.02;3.15;;;18.00;99.90;;;;;;5110430;28;20035;-82
2023/07/17 07:50:38;;;;;;;15.68;3.33;;;17.90;99.90;;;;;;5110341;28;20040;-83
2023/07/17 07:53:24;;;;;;;12.63;3.42;;;18.10;99.90;;;;;;5094665;28;20130;-83
2023/07/17 07:56:10;;;;;;;8.90;3.95;;;18.20;99.90;;;;;;5125421;27;20120;-82
2023/07/17 07:58:56;;;;;;;8.73;2.97;;;18.40;99.90;;;;;;5115380;27;20043;-82
2023/07/17 08:01:42;;;;;;;8.65;3.28;;;18.60;99.90;;;;;;5115503;27;20058;-83
2023/07/17 08:04:29;;;;;;;7.75;2.53;;;18.60;99.90;;;;;;5102039;27;20043;-82
2023/07/17 08:07:15;;;;;;;7.13;2.38;;;18.70;99.90;;;;;;5132968;27;20058;-83
2023/07/17 08:10:01;;;;;;;7.85;2.65;;;18.90;99.90;;;;;;5134710;27;20399;-82
2023/07/17 08:12:47;;;;;;;9.00;3.03;;;19.10;99.90;;;;;;5114644;27;20055;-82
2023/07/17 08:15:33;;;;;;;11.50;3.35;;;19.30;99.90;;;;;;5115253;27;20047;-83
2023/07/17 08:18:19;;;;;;;10.52;3.42;;;19.50;99.90;;;;;;5133581;27;20572;-83
2023/07/17 08:21:05;;;;;;;14.48;3.20;;;19.20;99.90;;;;;;5133697;27;20559;-83
2023/07/17 08:23:51;;;;;;;9.60;2.28;;;19.30;99.90;;;;;;5134464;27;20051;-83
2023/07/17 08:26:41;;;;;;;8.95;2.72;;;19.30;99.90;;;;;;5132352;27;20134;-83
2023/07/17 08:29:28;;;;;;;8.43;2.97;;;19.40;99.90;;;;;;5132207;27;20184;-82
2023/07/17 08:32:14;;;;;;;8.27;2.58;;;19.60;99.90;;;;;;5119288;27;20134;-82
2023/07/17 08:35:00;;;;;;;7.22;2.10;;;19.60;99.90;;;;;;5132611;27;20380;-82
2023/07/17 08:37:46;;;;;;;8.00;2.40;;;19.70;99.90;;;;;;5132955;27;20046;-82
2023/07/17 08:40:33;;;;;;;6.82;2.20;;;19.50;99.90;;;;;;5101365;27;20051;-82
2023/07/17 08:43:21;;;;;;;10.52;2.25;;;19.40;99.90;;;;;;5114865;27;20070;-83
2023/07/17 08:46:08;;;;;;;7.90;2.35;;;19.60;99.90;;;;;;5132834;27;20054;-83
2023/07/17 08:48:56;;;;;;;12.75;2.20;;;19.90;99.90;;;;;;5123235;27;20448;-82
2023/07/17 08:51:43;;;;;;;13.07;2.70;;;19.80;99.90;;;;;;5132263;27;20059;-83
2023/07/17 08:54:29;;;;;;;13.85;2.58;;;20.10;99.90;;;;;;5132518;27;20372;-82
2023/07/17 08:57:15;;;;;;;11.45;3.05;;;20.40;99.90;;;;;;5117427;27;20130;-80
2023/07/17 09:00:01;;;;;;;10.27;2.10;;;20.60;99.90;;;;;;5113466;27;20189;-84
2023/07/17 09:02:47;;;;;;;12.05;3.05;;;20.60;99.90;;;;;;5132329;27;20427;-83
2023/07/17 09:05:34;;;;;;;7.53;2.50;;;20.20;99.90;;;;;;5131356;27;20108;-82
2023/07/17 09:08:20;;;;;;;9.68;2.65;;;20.00;99.90;;;;;;5132557;27;20051;-80
2023/07/17 09:11:08;;;;;;;9.77;2.35;;;19.90;99.90;;;;;;5132566;27;20391;-81
2023/07/17 09:13:54;;;;;;;11.25;2.72;;;19.70;99.90;;;;;;5113066;27;20055;-80
2023/07/17 09:16:40;;;;;;;10.30;2.53;;;19.50;99.90;;;;;;5131360;27;20039;-81
2023/07/17 09:19:29;;;;;;;7.50;2.40;;;19.40;99.90;;;;;;5131498;27;20051;-81
2023/07/17 09:22:15;;;;;;;9.90;2.88;;;19.70;99.90;;;;;;5113993;27;20133;-81
2023/07/17 09:25:02;;;;;;;11.45;2.72;;;20.00;99.90;;;;;;5132689;27;20043;-80
2023/07/17 09:27:50;;;;;;;12.82;2.47;;;20.00;99.90;;;;;;5133421;27;20043;-80
2023/07/17 09:30:36;;;;;;;9.75;2.80;;;20.10;99.90;;;;;;5131053;27;20058;-80
2023/07/17 09:33:24;;;;;;;14.60;2.72;;;20.40;99.90;;;;;;5131672;27;20036;-81
2023/07/17 09:36:11;;;;;;;7.75;2.55;;;20.70;99.90;;;;;;5130072;27;20055;-81
2023/07/17 09:38:59;;;;;;;10.55;2.78;;;20.90;99.90;;;;;;5113981;27;20488;-82
2023/07/17 09:41:45;;;;;;;9.43;2.60;;;20.60;99.90;;;;;;5132172;27;20039;-81
2023/07/17 09:44:32;;;;;;;6.50;1.98;;;20.70;99.90;;;;;;5130958;27;20143;-81
2023/07/17 09:47:21;;;;;;;8.57;1.92;;;21.00;99.90;;;;;;5131911;27;20131;-81
2023/07/17 09:50:08;;;;;;;7.60;2.00;;;21.20;99.90;;;;;;5131218;27;20105;-83
2023/07/17 09:52:54;;;;;;;8.93;1.90;;;21.10;99.60;;;;;;5132088;27;20051;-81
2023/07/17 09:55:43;;;;;;;7.07;2.22;;;21.10;99.90;;;;;;5093862;28;20484;-81
2023/07/17 09:58:30;;;;;;;9.77;2.38;;;21.30;99.90;;;;;;5092984;28;20052;-81
2023/07/17 10:01:19;;;;;;;7.25;2.00;;;21.30;99.00;;;;;;5091979;28;20113;-81
2023/07/17 10:04:07;;;;;;;9.95;2.97;;;21.40;99.20;;;;;;5111287;28;20407;-81
2023/07/17 10:06:55;;;;;;;7.18;2.15;;;21.50;99.30;;;;;;5111478;28;20075;-81
2023/07/17 10:09:43;;;;;;;8.75;2.38;;;21.20;99.30;;;;;;5093478;28;20100;-82
2023/07/17 10:12:30;;;;;;;9.20;2.78;;;20.90;99.20;;;;;;5111126;28;20086;-81
2023/07/17 10:15:17;;;;;;;5.90;2.17;;;20.70;99.70;;;;;;5110190;28;20050;-81
2023/07/17 10:18:09;;;;;;;8.32;2.35;;;20.40;99.50;;;;;;5109439;28;20059;-81
2023/07/17 10:20:55;;;;;;;9.38;2.42;;;20.30;99.80;;;;;;5110816;28;20435;-81
2023/07/17 10:23:43;;;;;;;6.32;1.92;;;20.30;99.70;;;;;;5110836;28;20043;-81
2023/07/17 10:26:30;;;;;;;6.65;2.00;;;20.30;99.30;;;;;;5110087;28;20529;-81
2023/07/17 10:29:30;;;;;;;12.65;2.45;;;20.60;99.80;;;;;;5109711;28;20380;-81
2023/07/17 10:32:18;;;;;;;11.00;2.80;;;21.00;99.30;;;;;;5111450;28;20067;-81
2023/07/17 10:35:19;;;;;;;7.28;1.98;;;21.40;99.10;;;;;;5092776;28;20144;-82
2023/07/17 10:38:09;;;;;;;6.88;2.45;;;21.60;98.00;;;;;;5111211;28;20048;-81
2023/07/17 10:41:05;;;;;;;7.40;2.60;;;21.50;97.50;;;;;;5111105;28;20047;-81
2023/07/17 10:43:54;;;;;;;5.97;2.40;;;21.40;96.90;;;;;;5109992;28;20050;-81
2023/07/17 10:46:40;;;;;;;8.70;2.42;;;21.30;97.80;;;;;;5110184;28;20043;-82
2023/07/17 10:49:27;;;;;;;7.97;2.90;;;21.20;97.70;;;;;;5109489;28;20052;-82
2023/07/17 10:52:13;;;;;;;8.55;2.28;;;21.40;98.20;;;;;;5111053;28;20109;-82
2023/07/17 10:55:05;;;;;;;11.25;3.03;;;21.70;97.90;;;;;;5111819;27;20083;-82
2023/07/17 10:57:52;;;;;;;11.38;3.30;;;22.10;98.00;;;;;;5131627;27;20062;-82
2023/07/17 11:00:42;;;;;;;8.38;2.60;;;22.00;96.50;;;;;;5112755;27;20039;-81
2023/07/17 11:03:28;;;;;;;7.70;2.45;;;21.80;96.30;;;;;;5130246;27;20083;-82
2023/07/17 11:06:16;;;;;;;8.73;2.33;;;21.90;96.50;;;;;;5131295;27;20145;-82
2023/07/17 11:09:02;;;;;;;6.63;2.40;;;21.80;96.50;;;;;;5130096;28;20056;-81
2023/07/17 11:11:49;;;;;;;7.95;2.13;;;22.10;96.40;;;;;;5111250;28;20785;-81
2023/07/17 11:14:35;;;;;;;11.82;2.88;;;22.10;95.50;;;;;;5131457;28;20047;-82
2023/07/17 11:17:21;;;;;;;9.57;2.72;;;22.50;96.10;;;;;;5129302;28;20054;-81
2023/07/17 11:20:08;;;;;;;7.78;2.65;;;22.60;96.40;;;;;;5112739;28;20058;-81
2023/07/17 11:22:54;;;;;;;8.43;2.63;;;22.70;95.70;;;;;;5130026;28;20142;-81
2023/07/17 11:25:41;;;;;;;7.93;2.03;;;22.60;95.80;;;;;;5110718;28;20141;-82
2023/07/17 11:28:27;;;;;;;9.55;3.35;;;22.90;95.80;;;;;;5132789;27;20383;-82
2023/07/17 11:31:20;;;;;;;5.65;2.25;;;23.00;95.10;;;;;;5134546;27;20076;-81
2023/07/17 11:34:10;;;;;;;10.60;2.40;;;23.40;95.60;;;;;;5134415;27;20092;-82
2023/07/17 11:36:56;;;;;;;5.68;1.88;;;23.10;93.50;;;;;;5133285;27;20482;-80
2023/07/17 11:39:42;;;;;;;9.23;2.30;;;23.40;93.70;;;;;;5115035;27;20048;-83
2023/07/17 11:42:28;;;;;;;10.73;2.25;;;23.40;94.10;;;;;;5149678;27;20042;-82
2023/07/17 11:45:15;;;;;;;7.03;2.13;;;23.50;93.20;;;;;;5120630;27;20080;-83
2023/07/17 11:48:02;;;;;;;7.47;2.15;;;23.60;93.60;;;;;;5135818;27;20137;-83
2023/07/17 11:50:48;;;;;;;12.13;2.20;;;23.40;93.20;;;;;;5121339;27;20103;-82
2023/07/17 11:53:36;;;;;;;7.72;2.65;;;23.50;93.70;;;;;;5154911;27;20047;-83
2023/07/17 11:56:37;;;;;;;9.98;2.20;;;23.70;94.20;;;;;;5155458;27;20062;-84
2023/07/17 11:59:26;;;;;;;11.40;2.67;;;23.90;92.80;;;;;;5153499;27;20043;-82
2023/07/17 12:02:12;;;;;;;9.20;2.55;;;23.70;93.30;;;;;;5153590;27;20387;-82
2023/07/17 12:05:01;;;;;;;7.18;2.15;;;23.60;93.40;;;;;;5153648;27;20161;-82
2023/07/17 12:07:47;;;;;;;8.43;2.08;;;23.70;93.50;;;;;;5136291;27;20114;-83
2023/07/17 12:10:35;;;;;;;5.30;1.75;;;23.50;92.90;;;;;;5114550;27;20055;-83
2023/07/17 12:13:20;;;;;;;9.70;2.42;;;23.60;92.70;;;;;;5133462;27;20090;-82
2023/07/17 12:16:06;;;;;;;12.60;2.50;;;23.60;92.70;;;;;;5101057;27;20099;-82
2023/07/17 12:18:53;;;;;;;7.82;2.53;;;23.80;92.60;;;;;;5133416;27;20086;-81
2023/07/17 12:21:39;;;;;;;8.20;2.65;;;24.30;93.70;;;;;;5118850;27;20073;-82
2023/07/17 12:24:25;;;;;;;6.85;2.25;;;24.30;93.00;;;;;;5133119;27;20096;-82
2023/07/17 12:27:12;;;;;;;7.13;2.20;;;24.00;92.40;;;;;;5133556;27;20517;-82
2023/07/17 12:29:58;;;;;;;13.40;2.72;;;24.10;92.10;;;;;;5132197;27;20056;-81
2023/07/17 12:32:44;;;;;;;8.20;2.53;;;23.90;92.80;;;;;;5134165;27;20047;-82
2023/07/17 12:35:30;;;;;;;6.43;2.15;;;24.10;93.90;;;;;;5131960;27;20528;-82
2023/07/17 12:38:16;;;;;;;7.22;2.53;;;23.80;93.70;;;;;;5114784;27;20058;-82
2023/07/17 12:41:03;;;;;;;8.80;2.33;;;23.80;93.90;;;;;;5133046;27;20043;-81
2023/07/17 12:43:49;;;;;;;7.60;2.53;;;23.80;94.00;;;;;;5132396;27;20116;-81
2023/07/17 12:46:35;;;;;;;8.20;2.58;;;24.10;94.10;;;;;;5133887;27;20134;-81
2023/07/17 12:49:21;;;;;;;6.95;2.30;;;24.10;93.00;;;;;;5132475;27;20035;-84
2023/07/17 12:52:07;;;;;;;13.00;2.53;;;24.20;93.10;;;;;;5118373;27;20062;-81
2023/07/17 12:54:53;;;;;;;7.65;2.55;;;24.30;93.40;;;;;;5131736;27;20115;-82
2023/07/17 12:57:39;;;;;;;6.82;3.00;;;24.50;92.80;;;;;;5133698;27;20055;-82
2023/07/17 13:00:25;;;;;;;6.53;2.03;;;24.30;92.50;;;;;;5153080;27;20406;-81
2023/07/17 13:03:12;;;;;;;9.18;2.67;;;24.60;92.00;;;;;;5141065;27;20039;-82
2023/07/17 13:05:58;;;;;;;9.85;3.17;;;24.50;92.30;;;;;;5152580;27;20050;-82
2023/07/17 13:08:44;;;;;;;10.05;2.40;;;24.50;92.40;;;;;;5133775;27;20091;-82
2023/07/17 13:11:30;;;;;;;7.40;3.28;;;25.30;92.90;;;;;;5134488;27;20623;-82
2023/07/17 13:14:16;;;;;;;6.70;2.63;;;25.50;92.30;;;;;;5153736;27;20471;-81
2023/07/17 13:17:02;;;;;;;11.43;2.85;;;25.80;91.80;;;;;;5138579;27;20046;-81
2023/07/17 13:19:49;;;;;;;9.57;2.55;;;25.70;91.50;;;;;;5152670;27;20043;-82
2023/07/17 13:22:35;;;;;;;12.90;4.30;;;25.90;92.30;;;;;;5152474;27;20061;-82
2023/07/17 13:25:21;;;;;;;10.25;2.60;;;26.40;92.60;;;;;;5134191;27;20047;-82
2023/07/17 13:28:08;;;;;;;12.07;3.22;;;26.30;92.30;;;;;;5134679;27;20566;-82
2023/07/17 13:30:54;;;;;;;10.30;2.92;;;26.10;92.00;;;;;;5152982;27;20130;-82
2023/07/17 13:33:40;;;;;;;7.20;2.25;;;26.20;91.80;;;;;;5134982;27;20047;-82
2023/07/17 13:36:26;;;;;;;9.32;2.67;;;25.90;92.10;;;;;;5153340;27;20054;-83
2023/07/17 13:39:12;;;;;;;6.00;2.30;;;25.60;91.10;;;;;;5152312;27;20038;-80
2023/07/17 13:42:01;;;;;;;11.02;2.85;;;26.50;92.00;;;;;;5151887;27;20043;-81
2023/07/17 13:44:47;;;;;;;8.73;2.33;;;27.10;91.90;;;;;;5133633;27;20051;-82
2023/07/17 13:47:33;;;;;;;11.18;2.58;;;26.60;90.30;;;;;;5133328;27;20076;-82
2023/07/17 13:50:19;;;;;;;13.75;3.20;;;25.80;91.00;;;;;;5137123;27;20061;-82
2023/07/17 13:53:05;;;;;;;6.65;2.40;;;25.90;91.00;;;;;;5151555;27;20087;-82
2023/07/17 13:55:51;;;;;;;11.18;2.95;;;26.30;91.20;;;;;;5141197;27;20073;-82
2023/07/17 13:58:37;;;;;;;6.68;2.20;;;26.30;91.50;;;;;;5131136;27;20065;-82
2023/07/17 14:01:23;;;;;;;7.72;2.70;;;25.70;91.80;;;;;;5131088;27;20492;-82
2023/07/17 14:04:09;;;;;;;7.82;2.30;;;25.30;92.30;;;;;;5131665;27;20142;-81
2023/07/17 14:06:57;;;;;;;8.48;2.58;;;24.80;92.90;;;;;;5131618;27;20130;-82
2023/07/17 14:09:43;;;;;;;13.23;2.92;;;24.50;93.40;;;;;;5132232;27;20057;-82
2023/07/17 14:12:29;;;;;;;10.35;2.28;;;25.20;93.70;;;;;;5132253;27;20051;-82
2023/07/17 14:15:15;;;;;;;9.15;2.60;;;24.80;92.90;;;;;;5130243;27;20040;-83
2023/07/17 14:18:01;;;;;;;7.25;2.25;;;24.70;92.50;;;;;;5132650;27;20043;-81
2023/07/17 14:20:47;;;;;;;6.00;2.03;;;25.00;92.60;;;;;;5131333;27;20134;-82